createdAt,value
2023-02-19T00:02:27.161Z,2.17
2023-02-19T00:04:54.357Z,3.30
2023-02-19T00:07:21.833Z,3.42
2023-02-19T00:09:49.082Z,4.07
2023-02-19T00:12:16.509Z,2.88
2023-02-19T00:14:43.785Z,0.95
2023-02-19T00:17:11.295Z,0.70
2023-02-19T00:19:38.498Z,0.90
2023-02-19T00:22:05.946Z,0.90
2023-02-19T00:24:33.122Z,0.70
2023-02-19T00:27:00.566Z,1.00
2023-02-19T00:29:27.873Z,0.93
2023-02-19T00:31:55.551Z,0.93
2023-02-19T00:34:22.798Z,0.80
2023-02-19T00:36:50.314Z,0.50
2023-02-19T00:39:18.783Z,0.60
2023-02-19T00:41:46.750Z,0.70
2023-02-19T00:44:14.696Z,0.50
2023-02-19T00:46:46.178Z,0.77
2023-02-19T00:49:21.163Z,0.68
2023-02-19T00:51:49.573Z,1.10
2023-02-19T00:54:17.438Z,1.05
2023-02-19T00:56:45.157Z,0.88
2023-02-19T00:59:13.583Z,0.80
2023-02-19T01:01:41.476Z,0.60
2023-02-19T01:04:08.709Z,0.60
2023-02-19T01:06:36.664Z,0.95
2023-02-19T01:09:05.253Z,0.63
2023-02-19T01:11:32.854Z,1.38
2023-02-19T01:14:01.433Z,1.17
2023-02-19T01:16:29.512Z,0.70
2023-02-19T01:18:57.942Z,1.58
2023-02-19T01:21:27.873Z,1.70
2023-02-19T01:23:55.984Z,1.27
2023-02-19T01:26:29.314Z,1.75
2023-02-19T01:28:57.411Z,2.00
2023-02-19T01:31:26.019Z,1.23
2023-02-19T01:33:56.693Z,0.93
2023-02-19T01:36:24.878Z,0.98
2023-02-19T01:38:52.189Z,0.77
2023-02-19T01:41:23.890Z,0.95
2023-02-19T01:44:08.188Z,1.38
2023-02-19T01:46:43.976Z,1.58
2023-02-19T01:49:21.265Z,2.15
2023-02-19T01:51:55.256Z,3.47
2023-02-19T01:54:26.582Z,1.33
2023-02-19T01:56:56.045Z,1.30
2023-02-19T01:59:23.543Z,1.33
2023-02-19T02:01:51.378Z,1.42
2023-02-19T02:04:19.251Z,1.75
2023-02-19T02:06:51.144Z,2.45
2023-02-19T02:09:44.011Z,2.05
2023-02-19T02:12:12.982Z,2.53
2023-02-19T02:14:43.455Z,2.30
2023-02-19T02:17:40.180Z,1.52
2023-02-19T02:20:27.338Z,2.15
2023-02-19T02:23:11.610Z,2.58
2023-02-19T02:25:47.942Z,3.00
2023-02-19T02:28:46.164Z,2.95
2023-02-19T02:31:16.994Z,4.43
2023-02-19T02:33:57.453Z,4.38
2023-02-19T02:36:31.519Z,3.53
2023-02-19T02:39:03.715Z,3.78
2023-02-19T02:41:33.960Z,2.78
2023-02-19T02:44:01.944Z,3.25
2023-02-19T02:46:35.354Z,3.42
2023-02-19T02:49:20.077Z,4.82
2023-02-19T02:51:52.997Z,5.53
2023-02-19T02:54:48.063Z,6.65
2023-02-19T02:57:17.929Z,10.77
2023-02-19T02:59:49.800Z,10.20
2023-02-19T03:02:25.569Z,8.70
2023-02-19T03:05:35.457Z,8.02
2023-02-19T03:08:11.865Z,6.60
2023-02-19T03:10:53.240Z,5.90
2023-02-19T03:13:47.983Z,5.78
2023-02-19T03:16:44.800Z,5.00
2023-02-19T03:19:21.928Z,4.43
2023-02-19T03:22:14.488Z,5.40
2023-02-19T03:25:06.805Z,8.65
2023-02-19T03:49:49.212Z,1.23
2023-02-19T03:52:34.944Z,1.73
2023-02-19T03:55:12.428Z,1.40
2023-02-19T03:57:48.869Z,1.70
2023-02-19T04:00:33.051Z,2.47
2023-02-19T04:03:06.620Z,3.28
2023-02-19T04:05:40.089Z,3.47
2023-02-19T04:08:16.654Z,4.57
2023-02-19T04:10:50.676Z,4.15
2023-02-19T04:13:26.349Z,5.18
2023-02-19T04:15:58.393Z,5.75
2023-02-19T04:18:33.827Z,7.35
2023-02-19T04:21:02.899Z,5.57
2023-02-19T04:23:36.894Z,5.60
2023-02-19T04:26:05.078Z,4.72
2023-02-19T04:28:33.065Z,4.95
2023-02-19T04:31:00.256Z,3.95
2023-02-19T04:33:27.848Z,3.45
2023-02-19T04:35:55.044Z,3.50
2023-02-19T04:38:22.601Z,3.95
2023-02-19T04:40:51.646Z,3.95
2023-02-19T04:43:19.310Z,3.10
2023-02-19T04:45:46.565Z,3.45
2023-02-19T04:48:15.040Z,3.72
2023-02-19T04:50:42.163Z,4.05
2023-02-19T04:53:09.656Z,3.70
2023-02-19T04:55:38.310Z,3.72
2023-02-19T04:58:05.818Z,3.20
2023-02-19T05:00:34.206Z,3.70
2023-02-19T05:03:01.996Z,3.65
2023-02-19T05:05:29.401Z,4.32
2023-02-19T05:07:57.513Z,3.75
2023-02-19T05:10:24.718Z,3.70
2023-02-19T05:12:52.320Z,4.05
2023-02-19T05:15:19.550Z,3.78
2023-02-19T05:17:47.035Z,2.92
2023-02-19T05:20:14.267Z,3.53
2023-02-19T05:22:41.678Z,2.55
2023-02-19T05:25:09.052Z,2.55
2023-02-19T05:27:36.471Z,2.92
2023-02-19T05:30:04.356Z,3.03
2023-02-19T05:32:31.913Z,2.78
2023-02-19T05:34:59.056Z,2.78
2023-02-19T05:37:26.453Z,3.42
2023-02-19T05:39:53.718Z,4.40
2023-02-19T05:42:21.183Z,2.92
2023-02-19T05:44:48.356Z,3.40
2023-02-19T05:47:15.864Z,3.53
2023-02-19T05:49:42.998Z,7.90
2023-02-19T05:52:10.409Z,7.68
2023-02-19T05:54:37.668Z,6.88
2023-02-19T05:57:05.110Z,4.70
2023-02-19T05:59:32.437Z,4.60
2023-02-19T06:01:59.930Z,6.18
2023-02-19T06:04:27.316Z,5.72
2023-02-19T06:06:54.773Z,4.68
2023-02-19T06:09:22.029Z,5.15
2023-02-19T06:11:49.524Z,4.53
2023-02-19T06:14:16.720Z,4.28
2023-02-19T06:16:44.208Z,4.18
2023-02-19T06:19:11.353Z,4.90
2023-02-19T06:21:38.825Z,3.65
2023-02-19T06:24:10.218Z,2.60
2023-02-19T06:26:38.667Z,2.70
2023-02-19T06:29:05.792Z,2.42
2023-02-19T06:31:33.973Z,3.05
2023-02-19T06:34:05.081Z,2.40
2023-02-19T06:36:34.860Z,2.10
2023-02-19T06:39:04.186Z,2.75
2023-02-19T06:41:31.897Z,2.65
2023-02-19T06:43:59.167Z,2.38
2023-02-19T06:46:26.866Z,2.28
2023-02-19T06:48:54.296Z,1.98
2023-02-19T06:51:27.287Z,2.10
2023-02-19T06:53:54.687Z,2.45
2023-02-19T06:56:34.520Z,2.15
2023-02-19T06:59:03.800Z,2.20
2023-02-19T07:01:32.909Z,2.42
2023-02-19T07:04:00.348Z,2.33
2023-02-19T07:06:28.670Z,2.80
2023-02-19T07:08:57.628Z,2.60
2023-02-19T07:11:29.486Z,2.65
2023-02-19T07:14:03.980Z,2.22
2023-02-19T07:16:39.711Z,2.15
2023-02-19T07:19:11.926Z,1.77
2023-02-19T07:21:39.583Z,1.75
2023-02-19T07:24:10.374Z,1.90
2023-02-19T07:26:38.569Z,2.47
2023-02-19T07:29:06.679Z,2.42
2023-02-19T07:31:34.406Z,2.70
2023-02-19T07:34:01.774Z,3.67
2023-02-19T07:36:29.351Z,3.00
2023-02-19T07:38:57.939Z,4.85
2023-02-19T07:41:26.857Z,7.88
2023-02-19T07:43:57.174Z,10.07
2023-02-19T07:46:25.614Z,7.68
2023-02-19T07:48:52.920Z,7.28
2023-02-19T07:51:21.231Z,4.53
2023-02-19T07:53:52.873Z,2.45
2023-02-19T07:56:21.053Z,1.75
2023-02-19T07:58:48.491Z,2.30
2023-02-19T08:01:19.188Z,2.40
2023-02-19T08:03:48.778Z,2.63
2023-02-19T08:06:17.844Z,3.42
2023-02-19T08:08:45.094Z,5.75
2023-02-19T08:11:31.262Z,7.88
2023-02-19T08:13:58.517Z,5.30
2023-02-19T08:16:42.209Z,1.98
2023-02-19T08:19:10.237Z,1.60
2023-02-19T08:21:37.667Z,1.27
2023-02-19T08:24:05.420Z,1.30
2023-02-19T08:26:33.657Z,1.70
2023-02-19T08:29:04.366Z,1.77
2023-02-19T08:31:33.624Z,1.70
2023-02-19T08:34:00.962Z,2.08
2023-02-19T08:36:28.536Z,1.42
2023-02-19T08:38:55.799Z,1.50
2023-02-19T08:41:26.693Z,1.60
2023-02-19T08:43:53.970Z,1.83
2023-02-19T08:46:22.954Z,1.80
2023-02-19T08:48:50.238Z,1.55
2023-02-19T08:51:17.781Z,2.20
2023-02-19T08:53:45.004Z,1.98
2023-02-19T08:56:15.570Z,2.47
2023-02-19T08:58:43.585Z,2.85
2023-02-19T09:01:13.735Z,3.20
2023-02-19T09:03:41.672Z,2.45
2023-02-19T09:06:15.137Z,3.97
2023-02-19T09:08:42.377Z,2.70
2023-02-19T09:11:15.941Z,3.40
2023-02-19T09:13:44.126Z,2.92
2023-02-19T09:16:11.884Z,2.90
2023-02-19T09:18:39.435Z,2.83
2023-02-19T09:21:07.406Z,3.42
2023-02-19T09:23:35.697Z,3.08
2023-02-19T09:26:07.868Z,3.13
2023-02-19T09:28:35.716Z,3.05
2023-02-19T09:31:07.818Z,5.30
2023-02-19T09:33:35.223Z,5.35
2023-02-19T09:36:03.833Z,4.72
2023-02-19T09:38:31.195Z,6.72
2023-02-19T09:41:05.879Z,2.35
2023-02-19T09:43:33.872Z,1.98
2023-02-19T09:46:04.851Z,2.33
2023-02-19T09:48:32.466Z,2.38
2023-02-19T09:51:01.879Z,2.58
2023-02-19T09:53:40.435Z,2.60
2023-02-19T09:56:08.772Z,2.47
2023-02-19T09:58:46.244Z,2.05
2023-02-19T10:01:14.514Z,4.30
2023-02-19T10:03:47.144Z,3.10
2023-02-19T10:06:26.603Z,5.22
2023-02-19T10:09:13.828Z,3.72
2023-02-19T10:11:42.225Z,3.58
2023-02-19T10:14:16.714Z,2.67
2023-02-19T10:16:46.401Z,4.47
2023-02-19T10:19:14.410Z,3.40
2023-02-19T10:21:42.828Z,3.20
2023-02-19T10:24:20.802Z,3.03
2023-02-19T10:26:50.437Z,3.88
2023-02-19T10:29:20.416Z,5.50
2023-02-19T10:31:49.993Z,6.53
2023-02-19T10:34:22.992Z,3.70
2023-02-19T10:36:53.135Z,3.38
2023-02-19T10:39:23.049Z,1.40
2023-02-19T10:41:52.972Z,1.23
2023-02-19T10:44:39.435Z,1.38
2023-02-19T10:47:08.020Z,1.75
2023-02-19T10:49:41.085Z,1.73
2023-02-19T10:52:36.428Z,2.25
2023-02-19T10:55:19.267Z,3.08
2023-02-19T10:57:47.580Z,3.83
2023-02-19T11:00:30.484Z,5.55
2023-02-19T11:03:19.898Z,6.05
2023-02-19T11:06:04.586Z,5.82
2023-02-19T11:08:53.744Z,5.53
2023-02-19T11:11:30.783Z,5.60
2023-02-19T11:14:00.139Z,6.90
2023-02-19T11:16:52.218Z,6.07
2023-02-19T11:19:34.963Z,6.38
2023-02-19T11:22:03.499Z,6.55
2023-02-19T11:24:37.661Z,6.35
2023-02-19T11:27:14.450Z,5.47
2023-02-19T11:29:42.128Z,5.32
2023-02-19T11:32:21.461Z,6.70
2023-02-19T11:34:49.227Z,5.68
2023-02-19T11:37:19.248Z,5.82
2023-02-19T11:39:51.671Z,6.40
2023-02-19T11:42:36.024Z,6.60
2023-02-19T11:45:42.137Z,4.97
2023-02-19T11:48:32.274Z,5.72
2023-02-19T11:50:59.892Z,6.47
2023-02-19T11:53:29.699Z,8.23
2023-02-19T11:56:03.323Z,8.30
2023-02-19T11:58:39.832Z,7.70
2023-02-19T12:01:22.241Z,4.05
2023-02-19T12:04:01.540Z,2.80
2023-02-19T12:06:43.753Z,2.42
2023-02-19T12:09:24.885Z,1.33
2023-02-19T12:12:01.316Z,0.90
2023-02-19T12:14:46.296Z,0.93
2023-02-19T12:17:14.016Z,1.50
2023-02-19T12:19:55.485Z,1.90
2023-02-19T12:22:52.184Z,2.15
2023-02-19T12:25:28.807Z,1.75
2023-02-19T12:28:55.671Z,2.20
2023-02-19T12:31:40.951Z,3.78
2023-02-19T12:34:30.520Z,3.53
2023-02-19T12:37:19.149Z,2.53
2023-02-19T12:40:03.415Z,2.20
2023-02-19T12:43:00.904Z,2.47
2023-02-19T12:45:52.567Z,3.70
2023-02-19T12:48:44.672Z,7.82
2023-02-19T12:51:45.138Z,6.22
2023-02-19T12:54:18.248Z,6.28
2023-02-19T12:59:48.966Z,3.88
2023-02-19T13:02:23.428Z,3.08
2023-02-19T13:05:05.645Z,3.53
2023-02-19T13:07:49.336Z,4.07
2023-02-19T13:10:29.404Z,4.72
2023-02-19T13:13:02.402Z,5.32
2023-02-19T13:15:41.867Z,4.50
2023-02-19T13:18:40.206Z,5.35
2023-02-19T13:21:08.843Z,6.72
2023-02-19T13:23:59.410Z,14.45
2023-02-19T13:26:29.904Z,10.52
2023-02-19T13:29:00.508Z,9.27
2023-02-19T13:32:05.615Z,6.15
2023-02-19T13:34:48.223Z,6.82
2023-02-19T13:37:17.151Z,10.98
2023-02-19T13:39:55.739Z,5.22
2023-02-19T13:42:27.201Z,4.15
2023-02-19T13:44:57.977Z,8.75
2023-02-19T13:47:48.281Z,6.80
2023-02-19T13:50:28.858Z,6.78
2023-02-19T13:52:57.222Z,5.30
2023-02-19T14:34:19.833Z,2.88
2023-02-19T14:36:52.662Z,2.85
2023-02-19T14:39:47.179Z,2.80
2023-02-19T14:42:29.847Z,3.75
2023-02-19T14:45:03.199Z,3.13
2023-02-19T14:47:37.893Z,2.45
2023-02-19T14:50:16.651Z,3.72
2023-02-19T14:52:49.708Z,3.55
2023-02-19T14:55:29.101Z,2.55
2023-02-19T14:57:59.999Z,3.30
2023-02-19T15:00:38.135Z,2.97
2023-02-19T15:03:07.297Z,2.05
2023-02-19T15:05:41.752Z,2.38
2023-02-19T15:08:16.084Z,2.85
2023-02-19T15:10:44.478Z,2.95
2023-02-19T15:13:17.644Z,3.65
2023-02-19T15:15:48.208Z,4.10
2023-02-19T15:18:22.286Z,3.35
2023-02-19T15:21:01.730Z,6.43
2023-02-19T15:23:32.207Z,4.03
2023-02-19T15:26:00.558Z,2.75
2023-02-19T15:28:34.566Z,2.25
2023-02-19T15:31:02.445Z,2.72
2023-02-19T15:33:30.257Z,2.50
2023-02-19T15:36:06.249Z,2.60
2023-02-19T15:38:34.746Z,3.13
2023-02-19T15:41:02.442Z,2.55
2023-02-19T15:43:59.208Z,2.92
2023-02-19T15:46:27.043Z,2.72
2023-02-19T15:49:12.438Z,2.70
2023-02-19T15:52:08.394Z,3.50
2023-02-19T15:54:58.942Z,3.53
2023-02-19T15:57:34.874Z,2.42
2023-02-19T16:00:11.889Z,3.85
2023-02-19T16:02:42.352Z,2.85
2023-02-19T16:05:26.468Z,4.25
2023-02-19T16:08:21.328Z,3.92
2023-02-19T16:11:02.642Z,3.25
2023-02-19T16:13:35.196Z,3.67
2023-02-19T16:16:19.126Z,3.63
2023-02-19T16:18:59.189Z,6.18
2023-02-19T16:21:29.199Z,5.00
2023-02-19T16:24:33.224Z,4.80
2023-02-19T16:27:01.837Z,6.10
2023-02-19T16:29:32.727Z,3.75
2023-02-19T16:32:04.584Z,3.75
2023-02-19T16:34:47.591Z,4.22
2023-02-19T16:37:44.310Z,3.35
2023-02-19T16:40:31.560Z,4.45
2023-02-19T16:43:05.458Z,6.93
2023-02-19T16:45:32.933Z,5.95
2023-02-19T16:48:00.557Z,5.57
2023-02-19T16:50:28.021Z,5.25
2023-02-19T16:53:03.806Z,5.45
2023-02-19T16:55:37.731Z,5.43
2023-02-19T16:58:06.093Z,7.03
2023-02-19T17:00:35.528Z,6.22
2023-02-19T17:03:12.753Z,6.50
2023-02-19T17:05:41.247Z,6.88
2023-02-19T17:08:34.571Z,7.38
2023-02-19T17:11:04.040Z,5.22
2023-02-19T17:13:35.033Z,8.23
2023-02-19T17:16:02.689Z,7.53
2023-02-19T17:18:32.143Z,5.50
2023-02-19T17:21:16.052Z,5.47
2023-02-19T17:23:45.990Z,3.28
2023-02-19T17:26:23.793Z,3.40
2023-02-19T17:28:52.991Z,3.80
2023-02-19T17:31:20.706Z,5.05
2023-02-19T17:33:48.610Z,7.22
2023-02-19T17:36:27.054Z,4.90
2023-02-19T17:38:55.045Z,6.30
2023-02-19T17:41:22.516Z,8.95
2023-02-19T17:43:53.517Z,9.27
2023-02-19T17:46:24.255Z,6.60
2023-02-19T17:48:52.303Z,4.03
2023-02-19T17:51:19.928Z,5.68
2023-02-19T17:53:47.678Z,6.53
2023-02-19T17:56:24.037Z,3.20
2023-02-19T17:58:52.527Z,4.28
2023-02-19T18:01:19.896Z,4.15
2023-02-19T18:03:47.786Z,4.03
2023-02-19T18:06:15.608Z,5.32
2023-02-19T18:08:49.528Z,3.72
2023-02-19T18:11:18.656Z,4.68
2023-02-19T18:13:46.716Z,4.40
2023-02-19T18:16:15.882Z,3.78
2023-02-19T18:18:44.782Z,3.92
2023-02-19T18:21:13.841Z,3.70
2023-02-19T18:23:42.227Z,4.18
2023-02-19T18:26:11.105Z,4.85
2023-02-19T18:28:39.274Z,4.72
2023-02-19T18:31:07.498Z,4.30
2023-02-19T18:33:35.707Z,4.43
2023-02-19T18:36:04.230Z,5.50
2023-02-19T18:38:31.923Z,4.63
2023-02-19T18:40:59.320Z,4.80
2023-02-19T18:43:27.200Z,4.53
2023-02-19T18:45:54.796Z,4.70
2023-02-19T18:48:22.569Z,6.00
2023-02-19T18:50:49.947Z,4.57
2023-02-19T18:53:17.760Z,4.88
2023-02-19T18:55:45.271Z,3.55
2023-02-19T18:58:13.125Z,3.83
2023-02-19T19:00:40.478Z,6.25
2023-02-19T19:03:08.328Z,4.47
2023-02-19T19:05:35.852Z,4.45
2023-02-19T19:08:03.849Z,4.50
2023-02-19T19:10:31.584Z,4.63
2023-02-19T19:12:59.345Z,3.90
2023-02-19T19:15:27.004Z,4.22
2023-02-19T19:17:55.342Z,5.25
2023-02-19T19:20:24.099Z,4.70
2023-02-19T19:22:53.194Z,6.10
2023-02-19T19:25:23.086Z,7.57
2023-02-19T19:27:55.123Z,7.70
2023-02-19T19:30:22.949Z,10.45
2023-02-19T19:32:52.474Z,10.85
2023-02-19T19:35:21.646Z,6.68
2023-02-19T19:37:49.935Z,7.30
2023-02-19T19:40:18.423Z,8.68
2023-02-19T19:42:46.518Z,5.97
2023-02-19T19:45:14.806Z,4.53
2023-02-19T19:47:42.622Z,4.28
2023-02-19T19:50:10.490Z,4.15
2023-02-19T19:52:38.302Z,4.72
2023-02-19T19:55:06.512Z,3.97
2023-02-19T19:57:34.444Z,3.50
2023-02-19T20:00:02.242Z,4.20
2023-02-19T20:02:40.368Z,5.18
2023-02-19T20:05:08.225Z,4.38
2023-02-19T20:07:36.124Z,5.60
2023-02-19T20:10:04.165Z,4.30
2023-02-19T20:12:33.527Z,4.50
2023-02-19T20:15:03.085Z,3.85
2023-02-19T20:17:32.972Z,3.30
2023-02-19T20:20:00.666Z,3.95
2023-02-19T20:22:28.772Z,3.10
2023-02-19T20:24:57.123Z,3.65
2023-02-19T20:27:25.086Z,4.57
2023-02-19T20:29:52.764Z,3.65
2023-02-19T20:32:20.936Z,4.28
2023-02-19T20:34:48.868Z,3.60
2023-02-19T20:37:16.658Z,4.10
2023-02-19T20:39:44.056Z,2.60
2023-02-19T20:42:16.454Z,3.28
2023-02-19T20:44:44.621Z,3.08
2023-02-19T20:47:12.574Z,2.30
2023-02-19T20:49:46.013Z,2.85
2023-02-19T20:52:16.094Z,2.55
2023-02-19T20:54:44.650Z,2.55
2023-02-19T20:57:13.060Z,2.42
2023-02-19T20:59:41.150Z,2.75
2023-02-19T21:02:17.080Z,2.58
2023-02-19T21:04:44.638Z,2.05
2023-02-19T21:07:12.596Z,2.47
2023-02-19T21:09:40.150Z,2.63
2023-02-19T21:12:08.150Z,2.83
2023-02-19T21:14:35.592Z,2.78
2023-02-19T21:17:03.345Z,2.30
2023-02-19T21:19:30.664Z,4.72
2023-02-19T21:21:58.342Z,2.90
2023-02-19T21:24:25.862Z,3.10
2023-02-19T21:26:53.559Z,2.20
2023-02-19T21:29:22.462Z,3.65
2023-02-19T21:31:52.768Z,3.03
2023-02-19T21:34:22.470Z,3.10
2023-02-19T21:36:50.286Z,2.58
2023-02-19T21:39:21.283Z,2.95
2023-02-19T21:41:49.701Z,3.50
2023-02-19T21:44:17.374Z,2.83
2023-02-19T21:46:45.161Z,1.85
2023-02-19T21:49:13.113Z,2.40
2023-02-19T21:51:43.390Z,2.95
2023-02-19T21:54:21.100Z,2.10
2023-02-19T21:56:49.022Z,2.38
2023-02-19T21:59:16.339Z,2.08
2023-02-19T22:01:44.440Z,2.17
2023-02-19T22:04:15.143Z,2.60
2023-02-19T22:06:43.665Z,2.50
2023-02-19T22:09:12.666Z,1.80
2023-02-19T22:11:40.627Z,2.25
2023-02-19T22:14:08.164Z,1.98
2023-02-19T22:16:35.756Z,2.00
2023-02-19T22:19:04.828Z,2.25
2023-02-19T22:21:33.090Z,2.13
2023-02-19T22:24:02.408Z,1.73
2023-02-19T22:26:34.337Z,1.80
2023-02-19T22:29:07.335Z,1.65
2023-02-19T22:31:35.794Z,1.75
2023-02-19T22:34:03.892Z,2.00
2023-02-19T22:36:34.013Z,2.58
2023-02-19T22:39:01.719Z,4.15
2023-02-19T22:41:29.491Z,5.88
2023-02-19T22:43:58.198Z,5.32
2023-02-19T22:46:29.086Z,5.50
2023-02-19T22:48:56.641Z,4.88
2023-02-19T22:51:25.756Z,3.85
2023-02-19T22:53:55.817Z,3.00
2023-02-19T22:56:28.677Z,2.30
2023-02-19T22:58:57.328Z,2.78
2023-02-19T23:01:25.553Z,2.80
2023-02-19T23:03:58.375Z,3.80
2023-02-19T23:06:33.972Z,2.88
2023-02-19T23:09:11.052Z,2.13
2023-02-19T23:11:39.487Z,2.40
2023-02-19T23:14:07.840Z,2.75
2023-02-19T23:16:38.218Z,3.00
2023-02-19T23:19:08.226Z,3.47
2023-02-19T23:21:36.058Z,4.07
2023-02-19T23:24:03.585Z,2.65
2023-02-19T23:26:31.210Z,2.88
2023-02-19T23:28:58.536Z,2.58
2023-02-19T23:31:26.953Z,3.38
2023-02-19T23:33:55.337Z,3.63
2023-02-19T23:36:24.015Z,3.30
2023-02-19T23:38:51.337Z,2.40
2023-02-19T23:41:19.155Z,2.38
2023-02-19T23:43:46.387Z,2.33
2023-02-19T23:46:17.609Z,2.92
2023-02-19T23:48:46.328Z,1.85
2023-02-19T23:51:14.081Z,2.10
2023-02-19T23:53:41.519Z,1.98
2023-02-19T23:56:09.202Z,1.95
2023-02-19T23:58:36.570Z,2.17
